BAW970 EGLL-EDDH
Flight info
| Callsign | BAW970 |
|---|---|
| Flight time | N/A |
| Altitude | 35000 |
| Route | BPK Q295 SOMVA DCT MAVAS DCT VALAM DCT GASTU DCT OSTOR/N0386F230 T904 RIBSO RIBSO3S |
| Aircraft | A21N/M-SDE2E3FGHIRWXY/LB1 |
Departure
| Time | N/A |
|---|---|
| Airport | London Heathrow Airport (EGLL) |
Arrival
| Time | 2026-04-25 01:24 |
|---|---|
| Airport | Hamburg Helmut Schmidt Airport (EDDH) |
| Time | Latitude | Longitude | Altitude | Speed | Heading |
|---|---|---|---|---|---|
| 2026-04-25 01:09 | 53.64753 | 10.02307 | 497 ft | 182 kts | 232° |
| 2026-04-25 01:10 | 53.63981 | 10.00743 | 210 ft | 166 kts | 232° |
| 2026-04-25 01:10 | 53.63298 | 9.99352 | 76 ft | 143 kts | 233° |
| 2026-04-25 01:10 | 53.62735 | 9.98150 | 310 ft | 132 kts | 232° |
| 2026-04-25 01:10 | 53.62074 | 9.96951 | 762 ft | 148 kts | 227° |
| 2026-04-25 01:11 | 53.61316 | 9.95741 | 1378 ft | 155 kts | 224° |
| 2026-04-25 01:11 | 53.60502 | 9.94639 | 1868 ft | 155 kts | 210° |
| 2026-04-25 01:11 | 53.59383 | 9.94487 | 2146 ft | 177 kts | 161° |
| 2026-04-25 01:11 | 53.58490 | 9.96003 | 2446 ft | 197 kts | 110° |
| 2026-04-25 01:12 | 53.58530 | 9.98377 | 2702 ft | 217 kts | 64° |
| 2026-04-25 01:12 | 53.59266 | 10.00638 | 3130 ft | 231 kts | 53° |
| 2026-04-25 01:12 | 53.60169 | 10.02982 | 3627 ft | 247 kts | 53° |
| 2026-04-25 01:12 | 53.61074 | 10.05467 | 4335 ft | 253 kts | 54° |
| 2026-04-25 01:13 | 53.61950 | 10.08024 | 4803 ft | 255 kts | 55° |
| 2026-04-25 01:13 | 53.62815 | 10.10645 | 4961 ft | 256 kts | 56° |
| 2026-04-25 01:13 | 53.63653 | 10.13259 | 4963 ft | 255 kts | 56° |
| 2026-04-25 01:13 | 53.64493 | 10.15910 | 4964 ft | 255 kts | 56° |
| 2026-04-25 01:14 | 53.65324 | 10.18546 | 4965 ft | 255 kts | 56° |
| 2026-04-25 01:14 | 53.66152 | 10.21194 | 4965 ft | 255 kts | 56° |
| 2026-04-25 01:14 | 53.66980 | 10.23844 | 4966 ft | 255 kts | 56° |
| 2026-04-25 01:14 | 53.67807 | 10.26488 | 4965 ft | 256 kts | 56° |
| 2026-04-25 01:15 | 53.68631 | 10.29132 | 4963 ft | 256 kts | 56° |
| 2026-04-25 01:15 | 53.69466 | 10.31801 | 4965 ft | 256 kts | 56° |
| 2026-04-25 01:15 | 53.70293 | 10.34439 | 4959 ft | 254 kts | 55° |
| 2026-04-25 01:15 | 53.71175 | 10.36970 | 4733 ft | 248 kts | 50° |
| 2026-04-25 01:16 | 53.72172 | 10.39324 | 4326 ft | 247 kts | 44° |
| 2026-04-25 01:16 | 53.73427 | 10.41142 | 3916 ft | 234 kts | 14° |
| 2026-04-25 01:16 | 53.74950 | 10.41357 | 3542 ft | 219 kts | 342° |
| 2026-04-25 01:16 | 53.76354 | 10.40489 | 3199 ft | 214 kts | 334° |
| 2026-04-25 01:17 | 53.77731 | 10.39518 | 2973 ft | 215 kts | 334° |
| 2026-04-25 01:17 | 53.78944 | 10.38190 | 2939 ft | 206 kts | 307° |
| 2026-04-25 01:17 | 53.79453 | 10.35963 | 2957 ft | 207 kts | 274° |
| 2026-04-25 01:17 | 53.79192 | 10.33546 | 2983 ft | 212 kts | 258° |
| 2026-04-25 01:18 | 53.78635 | 10.31238 | 2971 ft | 216 kts | 248° |
| 2026-04-25 01:18 | 53.77822 | 10.29083 | 2971 ft | 219 kts | 241° |
| 2026-04-25 01:18 | 53.76918 | 10.27000 | 2965 ft | 220 kts | 239° |
| 2026-04-25 01:18 | 53.75971 | 10.24959 | 2968 ft | 221 kts | 238° |
| 2026-04-25 01:19 | 53.74990 | 10.22936 | 2967 ft | 222 kts | 237° |
| 2026-04-25 01:19 | 53.73999 | 10.20929 | 2963 ft | 222 kts | 237° |
| 2026-04-25 01:19 | 53.73009 | 10.18946 | 2921 ft | 223 kts | 237° |
| 2026-04-25 01:19 | 53.72013 | 10.16952 | 2687 ft | 222 kts | 237° |
| 2026-04-25 01:20 | 53.71028 | 10.14977 | 2440 ft | 214 kts | 237° |
| 2026-04-25 01:20 | 53.70093 | 10.13101 | 2167 ft | 203 kts | 237° |
| 2026-04-25 01:20 | 53.69221 | 10.11343 | 1892 ft | 187 kts | 237° |
| 2026-04-25 01:20 | 53.68423 | 10.09741 | 1603 ft | 174 kts | 238° |
| 2026-04-25 01:21 | 53.67679 | 10.08239 | 1342 ft | 161 kts | 238° |
| 2026-04-25 01:21 | 53.66991 | 10.06846 | 1119 ft | 146 kts | 236° |
| 2026-04-25 01:21 | 53.66372 | 10.05599 | 925 ft | 137 kts | 234° |
| 2026-04-25 01:21 | 53.65762 | 10.04353 | 760 ft | 137 kts | 233° |
| 2026-04-25 01:22 | 53.65525 | 10.03860 | 694 ft | 137 kts | 233° |
| 2026-04-25 01:23 | 53.65226 | 10.03254 | 605 ft | 136 kts | 232° |
| 2026-04-25 01:23 | 53.64621 | 10.02034 | 421 ft | 136 kts | 233° |
| 2026-04-25 01:23 | 53.64014 | 10.00805 | 226 ft | 135 kts | 232° |
| 2026-04-25 01:23 | 53.63636 | 10.00038 | 109 ft | 133 kts | 232° |
| 2026-04-25 01:24 | 53.63554 | 9.99871 | 102 ft | 133 kts | 232° |
| 2026-04-25 01:24 | 53.62978 | 9.98708 | 63 ft | 119 kts | 232° |
| 2026-04-25 01:24 | 53.62555 | 9.97851 | 62 ft | 71 kts | 231° |
| 2026-04-25 01:24 | 53.62345 | 9.97423 | 62 ft | 30 kts | 226° |
| 2026-04-25 01:25 | 53.62265 | 9.97374 | 62 ft | 16 kts | 170° |
| 2026-04-25 01:25 | 53.62216 | 9.97404 | 62 ft | 15 kts | 142° |
| 2026-04-25 01:25 | 53.62185 | 9.97568 | 62 ft | 15 kts | 76° |
| 2026-04-25 01:25 | 53.62190 | 9.97591 | 62 ft | 15 kts | 69° |
| 2026-04-25 01:26 | 53.62192 | 9.97599 | 62 ft | 15 kts | 65° |
| 2026-04-25 01:26 | 53.62255 | 9.97743 | 62 ft | 15 kts | 48° |
| 2026-04-25 01:26 | 53.62326 | 9.97883 | 62 ft | 15 kts | 51° |
| 2026-04-25 01:26 | 53.62397 | 9.98023 | 62 ft | 15 kts | 47° |
| 2026-04-25 01:27 | 53.62440 | 9.98095 | 62 ft | 15 kts | 43° |
| 2026-04-25 01:28 | 53.62542 | 9.98260 | 62 ft | 16 kts | 47° |
| 2026-04-25 01:28 | 53.62616 | 9.98403 | 62 ft | 16 kts | 49° |
| 2026-04-25 01:28 | 53.62680 | 9.98534 | 62 ft | 16 kts | 50° |
| 2026-04-25 01:29 | 53.62697 | 9.98569 | 62 ft | 16 kts | 51° |
| 2026-04-25 01:30 | 53.62770 | 9.98717 | 62 ft | 16 kts | 49° |
| 2026-04-25 01:30 | 53.62780 | 9.98737 | 62 ft | 16 kts | 49° |
| 2026-04-25 01:30 | 53.62810 | 9.98797 | 62 ft | 16 kts | 50° |
| 2026-04-25 01:30 | 53.62883 | 9.98946 | 62 ft | 16 kts | 51° |
| 2026-04-25 01:31 | 53.62957 | 9.99095 | 62 ft | 16 kts | 50° |
| 2026-04-25 01:31 | 53.63003 | 9.99187 | 62 ft | 16 kts | 49° |
| 2026-04-25 01:31 | 53.63025 | 9.99229 | 62 ft | 16 kts | 49° |
| 2026-04-25 01:32 | 53.63090 | 9.99384 | 61 ft | 16 kts | 55° |
| 2026-04-25 01:32 | 53.63158 | 9.99541 | 62 ft | 16 kts | 51° |
| 2026-04-25 01:32 | 53.63231 | 9.99687 | 62 ft | 16 kts | 46° |
| 2026-04-25 01:32 | 53.63273 | 9.99757 | 62 ft | 16 kts | 46° |
| 2026-04-25 01:33 | 53.63347 | 9.99902 | 62 ft | 16 kts | 50° |
| 2026-04-25 01:33 | 53.63366 | 9.99942 | 62 ft | 16 kts | 50° |